createdAt,value
2022-10-20T00:02:14.161Z,93.98
2022-10-20T00:07:17.093Z,93.92
2022-10-20T00:12:19.835Z,93.99
2022-10-20T00:17:22.599Z,94.24
2022-10-20T00:22:25.398Z,94.22
2022-10-20T00:27:28.645Z,94.28
2022-10-20T00:32:31.412Z,94.19
2022-10-20T00:37:34.221Z,94.31
2022-10-20T00:42:38.161Z,94.46
2022-10-20T00:47:55.546Z,94.70
2022-10-20T00:53:00.368Z,94.82
2022-10-20T00:58:04.633Z,94.80
2022-10-20T01:03:13.117Z,94.84
2022-10-20T01:08:16.136Z,95.19
2022-10-20T01:13:30.381Z,95.22
2022-10-20T01:18:51.205Z,95.47
2022-10-20T01:24:06.191Z,95.26
2022-10-20T01:29:16.560Z,95.36
2022-10-20T01:34:42.413Z,95.52
2022-10-20T01:39:53.407Z,95.47
2022-10-20T01:45:02.046Z,95.41
2022-10-20T01:50:07.659Z,95.19
2022-10-20T01:55:16.152Z,94.92
2022-10-20T02:00:19.053Z,94.80
2022-10-20T02:05:33.939Z,94.89
2022-10-20T02:10:48.826Z,94.91
2022-10-20T02:15:55.926Z,94.82
2022-10-20T02:21:02.930Z,94.86
2022-10-20T02:26:13.408Z,94.63
2022-10-20T02:31:17.643Z,94.49
2022-10-20T02:36:25.261Z,94.51
2022-10-20T02:41:28.165Z,94.75
2022-10-20T02:46:31.375Z,94.94
2022-10-20T02:51:34.895Z,94.93
2022-10-20T02:56:37.695Z,95.17
2022-10-20T03:01:41.296Z,95.14
2022-10-20T03:06:44.220Z,95.25
2022-10-20T03:11:47.847Z,95.35
2022-10-20T03:16:50.642Z,95.36
2022-10-20T03:21:53.548Z,95.39
2022-10-20T03:26:56.349Z,95.43
2022-10-20T03:31:59.150Z,95.53
2022-10-20T03:37:02.433Z,95.67
2022-10-20T03:42:05.267Z,95.86
2022-10-20T03:47:08.097Z,95.77
2022-10-20T03:52:10.975Z,95.85
2022-10-20T03:57:14.491Z,96.16
2022-10-20T04:02:35.021Z,96.10
2022-10-20T04:07:38.220Z,95.98
2022-10-20T04:12:41.126Z,95.91
2022-10-20T04:17:44.249Z,96.06
2022-10-20T04:22:47.136Z,96.16
2022-10-20T04:27:49.946Z,96.37
2022-10-20T04:32:52.741Z,96.58
2022-10-20T04:37:55.542Z,96.82
2022-10-20T04:43:01.212Z,96.94
2022-10-20T04:48:05.548Z,97.20
2022-10-20T04:53:09.651Z,97.01
2022-10-20T04:58:12.486Z,96.66
2022-10-20T05:03:15.292Z,96.58
2022-10-20T05:08:18.088Z,96.46
2022-10-20T05:13:20.990Z,96.32
2022-10-20T05:18:23.997Z,96.25
2022-10-20T05:23:26.799Z,96.04
2022-10-20T05:28:29.812Z,95.91
2022-10-20T05:33:33.466Z,95.98
2022-10-20T05:38:39.619Z,95.54
2022-10-20T05:43:42.818Z,95.18
2022-10-20T05:48:46.952Z,94.93
2022-10-20T05:53:49.752Z,94.69
2022-10-20T05:58:53.170Z,94.11
2022-10-20T06:03:59.294Z,93.57
2022-10-20T06:09:06.490Z,93.57
2022-10-20T06:14:10.463Z,93.27
2022-10-20T06:19:13.798Z,92.82
2022-10-20T06:24:17.213Z,92.73
2022-10-20T06:29:20.425Z,92.27
2022-10-20T06:34:25.522Z,91.83
2022-10-20T06:39:28.486Z,91.70
2022-10-20T06:44:36.714Z,91.03
2022-10-20T06:49:39.517Z,90.93
2022-10-20T06:54:42.426Z,90.60
2022-10-20T06:59:45.224Z,90.05
2022-10-20T07:04:50.274Z,89.18
2022-10-20T07:09:53.287Z,88.45
2022-10-20T07:14:56.118Z,88.31
2022-10-20T07:19:58.887Z,87.81
2022-10-20T07:25:06.401Z,87.49
2022-10-20T07:30:09.718Z,87.10
2022-10-20T07:35:12.624Z,86.36
2022-10-20T07:40:15.586Z,85.84
2022-10-20T07:45:18.536Z,85.62
2022-10-20T07:50:21.433Z,85.32
2022-10-20T07:55:38.106Z,84.61
2022-10-20T08:00:41.784Z,84.50
2022-10-20T08:05:44.692Z,85.00
2022-10-20T08:10:47.697Z,84.21
2022-10-20T08:15:53.373Z,83.69
2022-10-20T08:21:07.543Z,83.38
2022-10-20T08:26:11.870Z,82.92
2022-10-20T08:31:14.977Z,82.92
2022-10-20T08:36:17.885Z,83.01
2022-10-20T08:41:25.700Z,82.24
2022-10-20T08:46:35.777Z,80.84
2022-10-20T08:51:38.886Z,79.14
2022-10-20T08:56:42.503Z,77.47
2022-10-20T09:01:45.438Z,75.28
2022-10-20T09:06:53.842Z,72.53
2022-10-20T09:12:07.501Z,71.84
2022-10-20T09:17:17.883Z,71.45
2022-10-20T09:22:24.474Z,68.81
2022-10-20T09:27:35.714Z,67.22
2022-10-20T09:32:47.998Z,66.75
2022-10-20T09:37:56.940Z,63.88
2022-10-20T09:43:15.511Z,60.46
2022-10-20T09:48:26.505Z,54.39
2022-10-20T09:53:52.043Z,49.81
2022-10-20T09:58:58.018Z,43.34
2022-10-20T10:04:02.257Z,39.20
2022-10-20T10:09:32.805Z,37.46
2022-10-20T10:14:36.807Z,35.25
2022-10-20T10:19:39.741Z,34.35
2022-10-20T10:24:47.722Z,33.98
2022-10-20T10:29:50.819Z,32.66
2022-10-20T10:35:19.334Z,31.25
2022-10-20T10:40:29.418Z,30.15
2022-10-20T10:45:52.225Z,29.99
2022-10-20T10:50:58.533Z,27.40
2022-10-20T10:56:19.802Z,26.05
2022-10-20T11:01:41.083Z,24.17
2022-10-20T11:07:08.759Z,23.57
2022-10-20T11:12:27.128Z,24.69
2022-10-20T11:17:41.502Z,25.01
2022-10-20T11:23:21.621Z,22.40
2022-10-20T11:28:44.477Z,21.58
2022-10-20T11:33:54.009Z,20.15
2022-10-20T11:38:57.425Z,17.06
2022-10-20T11:44:25.012Z,17.17
2022-10-20T11:49:29.081Z,15.84
2022-10-20T11:54:51.753Z,18.31
2022-10-20T12:00:13.085Z,22.13
2022-10-20T12:05:44.109Z,21.76
2022-10-20T12:11:17.746Z,21.17
2022-10-20T12:16:54.768Z,22.68
2022-10-20T12:22:30.153Z,24.30
2022-10-20T12:27:33.124Z,22.67
2022-10-20T12:32:54.660Z,20.33
2022-10-20T12:38:02.525Z,18.57
2022-10-20T12:43:05.691Z,18.16
2022-10-20T12:48:18.425Z,18.82
2022-10-20T12:53:27.167Z,18.77
2022-10-20T12:58:33.161Z,18.79
2022-10-20T13:03:48.441Z,18.65
2022-10-20T13:09:04.022Z,18.24
2022-10-20T13:14:13.906Z,18.42
2022-10-20T13:19:32.381Z,20.43
2022-10-20T13:24:40.551Z,23.89
2022-10-20T13:29:48.419Z,24.81
2022-10-20T13:34:51.742Z,24.20
2022-10-20T13:40:33.063Z,23.25
2022-10-20T13:45:51.105Z,22.64
2022-10-20T13:50:59.340Z,22.52
2022-10-20T13:56:08.417Z,22.55
2022-10-20T14:01:24.704Z,23.10
2022-10-20T14:06:27.617Z,23.04
2022-10-20T14:11:31.785Z,24.02
2022-10-20T14:16:34.748Z,24.30
2022-10-20T14:21:46.349Z,24.28
2022-10-20T14:26:50.493Z,24.97
2022-10-20T14:31:53.962Z,26.42
2022-10-20T14:36:58.847Z,27.74
2022-10-20T14:42:04.624Z,29.29
2022-10-20T14:47:13.361Z,30.61
2022-10-20T14:52:21.749Z,31.76
2022-10-20T14:57:25.109Z,33.19
2022-10-20T15:02:41.533Z,34.59
2022-10-20T15:07:44.434Z,36.25
2022-10-20T15:12:49.298Z,37.99
2022-10-20T15:17:53.519Z,39.89
2022-10-20T15:22:58.479Z,41.23
2022-10-20T15:28:01.494Z,42.62
2022-10-20T15:33:04.485Z,44.02
2022-10-20T15:38:09.648Z,45.70
2022-10-20T15:43:15.109Z,47.29
2022-10-20T15:48:19.037Z,48.87
2022-10-20T15:53:21.941Z,50.36
2022-10-20T15:58:24.844Z,51.81
2022-10-20T16:03:27.647Z,53.60
2022-10-20T16:08:30.828Z,55.02
2022-10-20T16:13:34.828Z,56.23
2022-10-20T16:18:37.790Z,57.37
2022-10-20T16:23:42.576Z,58.45
2022-10-20T16:28:47.694Z,60.01
2022-10-20T16:33:50.510Z,60.75
2022-10-20T16:38:57.913Z,61.88
2022-10-20T16:44:01.323Z,62.66
2022-10-20T16:49:05.420Z,63.52
2022-10-20T16:54:08.258Z,64.23
2022-10-20T16:59:11.469Z,65.29
2022-10-20T17:04:14.378Z,66.04
2022-10-20T17:09:17.281Z,66.27
2022-10-20T17:14:20.284Z,67.37
2022-10-20T17:19:23.190Z,70.71
2022-10-20T17:24:26.100Z,71.40
2022-10-20T17:29:28.997Z,70.55
2022-10-20T17:34:32.412Z,71.25
2022-10-20T17:39:35.623Z,72.36
2022-10-20T17:44:38.838Z,73.59
2022-10-20T17:49:42.356Z,75.28
2022-10-20T17:54:45.261Z,77.13
2022-10-20T17:59:53.289Z,78.10
2022-10-20T18:04:57.723Z,80.09
2022-10-20T18:10:00.630Z,80.67
2022-10-20T18:15:05.433Z,80.55
2022-10-20T18:20:09.012Z,81.10
2022-10-20T18:25:11.798Z,81.78
2022-10-20T18:30:14.844Z,81.72
2022-10-20T18:40:25.424Z,82.90
2022-10-20T18:45:28.417Z,83.09
2022-10-20T18:50:32.675Z,84.16
2022-10-20T18:55:35.836Z,84.89
2022-10-20T19:00:38.717Z,84.98
2022-10-20T19:05:41.692Z,85.14
2022-10-20T19:10:44.797Z,85.94
2022-10-20T19:15:47.700Z,87.46
2022-10-20T19:21:02.181Z,86.91
2022-10-20T19:26:07.130Z,86.57
2022-10-20T19:31:22.017Z,87.93
2022-10-20T19:36:27.069Z,89.12
2022-10-20T19:41:30.075Z,89.27
2022-10-20T19:46:33.286Z,89.64
2022-10-20T19:51:36.395Z,90.74
2022-10-20T19:56:39.706Z,92.03
2022-10-20T20:01:42.613Z,93.49
2022-10-20T20:06:45.524Z,93.77
2022-10-20T20:11:48.528Z,93.67
2022-10-20T20:16:51.425Z,93.37
2022-10-20T20:21:54.329Z,93.44
2022-10-20T20:26:57.337Z,93.98
2022-10-20T20:32:00.754Z,94.07
2022-10-20T20:37:03.658Z,94.18
2022-10-20T20:42:06.561Z,94.10
2022-10-20T20:47:09.473Z,94.39
2022-10-20T20:52:12.397Z,95.05
2022-10-20T20:57:15.298Z,95.26
2022-10-20T21:02:18.280Z,95.89
2022-10-20T21:07:21.501Z,96.22
2022-10-20T21:12:27.907Z,97.21
2022-10-20T21:17:32.832Z,97.48
2022-10-20T21:22:35.833Z,97.78
2022-10-20T21:27:38.963Z,98.75
2022-10-20T21:32:41.850Z,98.62
2022-10-20T21:37:44.753Z,98.49
2022-10-20T21:42:47.559Z,98.23
2022-10-20T21:47:56.155Z,98.00
2022-10-20T21:52:58.997Z,97.95
2022-10-20T21:58:01.900Z,98.15
2022-10-20T22:03:05.086Z,98.16
2022-10-20T22:08:08.630Z,97.87
2022-10-20T22:13:11.535Z,98.14
2022-10-20T22:18:14.337Z,98.78
2022-10-20T22:23:17.451Z,98.77
2022-10-20T22:28:20.347Z,98.44
2022-10-20T22:33:23.662Z,98.01
2022-10-20T22:38:26.574Z,97.84
2022-10-20T22:43:31.744Z,97.44
2022-10-20T22:48:35.549Z,97.11
2022-10-20T22:53:39.188Z,96.93
2022-10-20T22:58:43.000Z,96.40
2022-10-20T23:03:47.288Z,96.11
2022-10-20T23:08:54.279Z,96.15
2022-10-20T23:13:57.537Z,96.55
2022-10-20T23:19:00.441Z,96.65
2022-10-20T23:24:03.447Z,96.16
2022-10-20T23:29:06.356Z,95.70
2022-10-20T23:34:09.875Z,95.33
2022-10-20T23:39:12.779Z,95.03
2022-10-20T23:44:15.682Z,95.04
2022-10-20T23:49:18.583Z,94.43
2022-10-20T23:54:21.594Z,94.06
2022-10-20T23:59:24.496Z,93.70
